Time;durP1;ratioP1;P1;durP2;ratioP2;P2;SDS_P1;SDS_P2;PMS_P1;PMS_P2;Temp;Humidity;BMP_temperature;BMP_pressure;BME280_temperature;BME280_humidity;BME280_pressure;Samples;Min_cycle;Max_cycle;Signal;HPM_P1;HPM_P2
2021/04/27 00:01:27;;;;;;;10.10;8.80;;;;;;;;;;3564806;40;20409;-78
2021/04/27 00:03:54;;;;;;;11.77;9.57;;;;;;;;;;3567557;40;20453;-78
2021/04/27 00:06:20;;;;;;;10.40;8.27;;;;;;;;;;3579408;40;20380;-78
2021/04/27 00:08:46;;;;;;;11.73;8.87;;;;;;;;;;3567135;40;20420;-80
2021/04/27 00:11:15;;;;;;;9.50;8.50;;;;;;;;;;3578754;40;20436;-78
2021/04/27 00:13:42;;;;;;;9.63;8.63;;;;;;;;;;3568561;40;20372;-78
2021/04/27 00:16:08;;;;;;;10.30;8.77;;;;;;;;;;3560577;40;20429;-78
2021/04/27 00:18:34;;;;;;;10.97;9.40;;;;;;;;;;3571881;40;21111;-79
2021/04/27 00:21:01;;;;;;;10.57;8.43;;;;;;;;;;3555551;40;20428;-78
2021/04/27 00:23:27;;;;;;;19.03;9.00;;;;;;;;;;3579252;40;20369;-78
2021/04/27 00:25:53;;;;;;;12.90;9.63;;;;;;;;;;3578075;40;20403;-78
2021/04/27 00:28:19;;;;;;;10.70;9.53;;;;;;;;;;3578731;40;20445;-78
2021/04/27 00:30:46;;;;;;;17.93;9.90;;;;;;;;;;3578319;40;20592;-78
2021/04/27 00:33:12;;;;;;;9.43;8.37;;;;;;;;;;3579191;40;20381;-78
2021/04/27 00:35:38;;;;;;;11.23;9.13;;;;;;;;;;3571145;40;20420;-78
2021/04/27 00:38:04;;;;;;;14.70;10.10;;;;;;;;;;3572472;40;20746;-78
2021/04/27 00:40:32;;;;;;;11.83;10.27;;;;;;;;;;3579669;40;21697;-77
2021/04/27 00:42:58;;;;;;;13.43;8.97;;;;;;;;;;3568596;40;20380;-78
2021/04/27 00:45:25;;;;;;;11.33;8.53;;;;;;;;;;3576152;40;20396;-78
2021/04/27 00:47:53;;;;;;;12.10;8.90;;;;;;;;;;3576779;40;20402;-78
2021/04/27 00:50:20;;;;;;;11.80;9.27;;;;;;;;;;3566823;40;20453;-78
2021/04/27 00:52:47;;;;;;;11.77;8.50;;;;;;;;;;3572124;40;20430;-78
2021/04/27 00:55:14;;;;;;;10.90;9.17;;;;;;;;;;3579654;40;20479;-78
2021/04/27 00:57:40;;;;;;;12.73;9.90;;;;;;;;;;3580505;40;20417;-78
2021/04/27 01:00:08;;;;;;;10.17;9.17;;;;;;;;;;3580096;40;20842;-78
2021/04/27 01:02:35;;;;;;;9.40;8.40;;;;;;;;;;3578244;40;20420;-78
2021/04/27 01:05:03;;;;;;;11.20;9.97;;;;;;;;;;3622077;23;20539;-76
2021/04/27 01:07:33;;;;;;;9.20;8.30;;;;;;;;;;3565442;40;20405;-77
2021/04/27 01:10:00;;;;;;;9.77;8.77;;;;;;;;;;3564948;40;20476;-76
2021/04/27 01:12:39;;;;;;;10.37;7.17;;;;;;;;;;3566050;40;20420;-76
2021/04/27 01:15:06;;;;;;;11.07;8.90;;;;;;;;;;3566356;40;20915;-77
2021/04/27 01:17:33;;;;;;;8.20;7.37;;;;;;;;;;3565273;40;20397;-77
2021/04/27 01:20:10;;;;;;;9.80;7.63;;;;;;;;;;3556586;40;20400;-77
2021/04/27 01:22:36;;;;;;;10.13;7.43;;;;;;;;;;3564217;40;20465;-77
2021/04/27 01:25:04;;;;;;;10.07;8.40;;;;;;;;;;3566208;40;20461;-77
2021/04/27 01:27:31;;;;;;;10.20;6.97;;;;;;;;;;3566859;40;20417;-77
2021/04/27 01:29:59;;;;;;;14.50;7.90;;;;;;;;;;3556602;40;20459;-77
2021/04/27 01:32:25;;;;;;;13.40;8.30;;;;;;;;;;3563407;40;20445;-77
2021/04/27 01:34:52;;;;;;;8.70;7.23;;;;;;;;;;3565754;40;20417;-77
2021/04/27 01:37:19;;;;;;;12.37;8.70;;;;;;;;;;3566691;40;20521;-77
2021/04/27 01:39:45;;;;;;;8.87;7.97;;;;;;;;;;3556352;40;20507;-77
2021/04/27 01:42:11;;;;;;;10.77;8.37;;;;;;;;;;3555826;40;20406;-77
2021/04/27 01:44:38;;;;;;;9.27;8.00;;;;;;;;;;3564143;40;20424;-77
2021/04/27 01:47:05;;;;;;;8.93;8.03;;;;;;;;;;3566403;40;20410;-77
2021/04/27 01:49:32;;;;;;;10.53;8.07;;;;;;;;;;3556365;40;20988;-77
2021/04/27 01:51:58;;;;;;;8.40;7.60;;;;;;;;;;3566159;40;20400;-77
2021/04/27 01:54:25;;;;;;;9.70;8.47;;;;;;;;;;3565668;40;20402;-77
2021/04/27 01:56:52;;;;;;;8.97;8.10;;;;;;;;;;3564747;40;20470;-77
2021/04/27 01:59:18;;;;;;;9.60;8.03;;;;;;;;;;3565310;40;20413;-77
2021/04/27 02:01:45;;;;;;;10.73;8.50;;;;;;;;;;3564673;40;20394;-77
2021/04/27 02:04:12;;;;;;;9.80;8.00;;;;;;;;;;3564661;40;20439;-77
2021/04/27 02:06:38;;;;;;;9.20;7.93;;;;;;;;;;3566633;40;21153;-77
2021/04/27 02:09:06;;;;;;;9.27;7.40;;;;;;;;;;3566389;40;20836;-77
2021/04/27 02:11:42;;;;;;;9.73;8.47;;;;;;;;;;3556221;40;21751;-77
2021/04/27 02:14:10;;;;;;;9.27;7.90;;;;;;;;;;3556875;40;20418;-77
2021/04/27 02:16:45;;;;;;;11.20;9.20;;;;;;;;;;3565658;40;20465;-77
2021/04/27 02:19:12;;;;;;;9.23;8.30;;;;;;;;;;3556033;40;20543;-77
2021/04/27 02:21:39;;;;;;;9.93;8.23;;;;;;;;;;3566289;40;20526;-77
2021/04/27 02:24:06;;;;;;;16.43;8.43;;;;;;;;;;3557659;40;20436;-76
2021/04/27 02:26:33;;;;;;;9.17;7.60;;;;;;;;;;3556308;40;20410;-76
2021/04/27 02:29:01;;;;;;;11.20;8.90;;;;;;;;;;3563588;40;20408;-76
2021/04/27 02:31:29;;;;;;;10.40;8.80;;;;;;;;;;3555434;40;20483;-77
2021/04/27 02:33:55;;;;;;;10.87;9.13;;;;;;;;;;3564407;40;20384;-77
2021/04/27 02:36:21;;;;;;;9.03;8.23;;;;;;;;;;3564237;40;20563;-76
2021/04/27 02:38:47;;;;;;;14.43;9.97;;;;;;;;;;3564385;40;20521;-76
2021/04/27 02:41:13;;;;;;;9.73;8.57;;;;;;;;;;3563602;40;20384;-76
2021/04/27 02:43:40;;;;;;;11.60;8.87;;;;;;;;;;3548182;40;20431;-76
2021/04/27 02:46:07;;;;;;;10.77;9.67;;;;;;;;;;3555645;40;20844;-76
2021/04/27 02:48:33;;;;;;;11.80;9.40;;;;;;;;;;3555060;40;20519;-76
2021/04/27 02:51:01;;;;;;;15.20;10.40;;;;;;;;;;3556184;40;20401;-77
2021/04/27 02:53:27;;;;;;;10.73;8.37;;;;;;;;;;3564357;40;20372;-77
2021/04/27 02:55:53;;;;;;;11.80;9.10;;;;;;;;;;3564265;40;20398;-76
2021/04/27 02:58:20;;;;;;;14.33;9.70;;;;;;;;;;3563176;40;20420;-76
2021/04/27 03:00:47;;;;;;;11.80;9.50;;;;;;;;;;3566116;40;20425;-77
2021/04/27 03:03:14;;;;;;;11.80;9.33;;;;;;;;;;3565699;40;20881;-77
2021/04/27 03:05:40;;;;;;;11.23;9.10;;;;;;;;;;3563882;40;20396;-76
2021/04/27 03:08:06;;;;;;;12.97;9.67;;;;;;;;;;3556087;40;20434;-76
2021/04/27 03:10:34;;;;;;;12.57;10.27;;;;;;;;;;3567518;40;20402;-76
2021/04/27 03:13:00;;;;;;;19.90;9.00;;;;;;;;;;3564006;40;20518;-76
2021/04/27 03:15:26;;;;;;;11.60;9.00;;;;;;;;;;3563406;40;20423;-76
2021/04/27 03:17:53;;;;;;;11.47;10.20;;;;;;;;;;3564824;40;20381;-76
2021/04/27 03:20:19;;;;;;;11.93;9.93;;;;;;;;;;3565624;40;20806;-77
2021/04/27 03:22:45;;;;;;;11.43;10.23;;;;;;;;;;3565459;40;20496;-76
2021/04/27 03:25:12;;;;;;;15.90;9.57;;;;;;;;;;3565715;40;20416;-76
2021/04/27 03:27:39;;;;;;;11.23;10.10;;;;;;;;;;3555690;40;20444;-76
2021/04/27 03:30:07;;;;;;;16.17;9.70;;;;;;;;;;3565277;40;20369;-76
2021/04/27 03:32:33;;;;;;;12.50;9.00;;;;;;;;;;3564603;40;20517;-76
2021/04/27 03:34:59;;;;;;;11.13;9.10;;;;;;;;;;3563647;40;20380;-76
2021/04/27 03:37:25;;;;;;;12.63;9.13;;;;;;;;;;3546531;40;20998;-76
2021/04/27 03:39:52;;;;;;;13.57;9.23;;;;;;;;;;3562923;40;20387;-76
2021/04/27 03:42:18;;;;;;;12.97;9.70;;;;;;;;;;3562665;40;20460;-76
2021/04/27 03:44:45;;;;;;;11.30;10.10;;;;;;;;;;3553206;40;20384;-76
2021/04/27 03:47:11;;;;;;;11.30;9.27;;;;;;;;;;3560522;40;20515;-76
2021/04/27 03:49:37;;;;;;;11.47;9.07;;;;;;;;;;3561731;40;20401;-76
2021/04/27 03:52:04;;;;;;;10.17;9.17;;;;;;;;;;3560827;40;20397;-78
2021/04/27 03:54:30;;;;;;;9.70;8.80;;;;;;;;;;3551049;40;20432;-76
2021/04/27 03:56:56;;;;;;;12.37;9.17;;;;;;;;;;3563781;40;20767;-77
2021/04/27 03:59:22;;;;;;;10.17;8.53;;;;;;;;;;3558509;40;20381;-76
2021/04/27 04:01:48;;;;;;;11.27;8.20;;;;;;;;;;3552838;40;20415;-77
2021/04/27 04:04:14;;;;;;;10.73;8.63;;;;;;;;;;3561733;40;20428;-76
2021/04/27 04:06:40;;;;;;;23.60;10.33;;;;;;;;;;3542031;40;20429;-77
2021/04/27 04:09:08;;;;;;;11.63;9.17;;;;;;;;;;3550427;40;20363;-76
2021/04/27 04:11:34;;;;;;;10.17;8.87;;;;;;;;;;3553366;40;20479;-76
2021/04/27 04:14:00;;;;;;;10.20;9.03;;;;;;;;;;3562510;40;20380;-76
2021/04/27 04:16:27;;;;;;;11.00;9.40;;;;;;;;;;3567038;40;20402;-76
2021/04/27 04:18:53;;;;;;;9.47;7.70;;;;;;;;;;3556931;40;20373;-76
2021/04/27 04:21:19;;;;;;;8.30;7.50;;;;;;;;;;3554864;40;20455;-77
2021/04/27 04:23:46;;;;;;;9.20;8.10;;;;;;;;;;3547165;40;20421;-76
2021/04/27 04:26:13;;;;;;;11.80;8.90;;;;;;;;;;3548101;40;20420;-77
2021/04/27 04:28:39;;;;;;;8.13;7.43;;;;;;;;;;3566621;40;20393;-77
2021/04/27 04:31:05;;;;;;;9.60;8.40;;;;;;;;;;3565611;40;20479;-77
2021/04/27 04:33:31;;;;;;;9.93;7.57;;;;;;;;;;3549359;40;20411;-77
2021/04/27 04:35:58;;;;;;;10.97;8.33;;;;;;;;;;3563214;40;20389;-77
2021/04/27 04:38:25;;;;;;;10.57;8.87;;;;;;;;;;3557812;40;21038;-76
2021/04/27 04:40:51;;;;;;;11.80;7.50;;;;;;;;;;3549250;40;20539;-77
2021/04/27 04:43:18;;;;;;;17.40;9.47;;;;;;;;;;3566619;40;20450;-77
2021/04/27 04:45:45;;;;;;;10.50;8.20;;;;;;;;;;3565892;40;20389;-77
2021/04/27 04:48:11;;;;;;;11.63;7.33;;;;;;;;;;3567166;40;20472;-77
2021/04/27 04:50:38;;;;;;;13.97;7.43;;;;;;;;;;3564255;40;20451;-76
2021/04/27 04:53:05;;;;;;;10.53;8.37;;;;;;;;;;3566697;40;20538;-77
2021/04/27 04:55:32;;;;;;;8.67;7.60;;;;;;;;;;3566051;40;20575;-77
2021/04/27 04:57:59;;;;;;;16.07;9.50;;;;;;;;;;3547627;40;20698;-77
2021/04/27 05:00:25;;;;;;;9.30;8.37;;;;;;;;;;3556083;40;20905;-77
2021/04/27 05:02:51;;;;;;;11.70;6.57;;;;;;;;;;3556516;40;20708;-77
2021/04/27 05:05:17;;;;;;;10.77;7.43;;;;;;;;;;3555758;40;20413;-77
2021/04/27 05:07:46;;;;;;;12.37;8.87;;;;;;;;;;3575485;39;20365;-77
2021/04/27 05:10:13;;;;;;;8.90;8.00;;;;;;;;;;3567822;39;20495;-76
2021/04/27 05:12:40;;;;;;;12.40;9.20;;;;;;;;;;3575901;40;22672;-77
2021/04/27 05:15:07;;;;;;;12.60;7.90;;;;;;;;;;3565208;40;20438;-77
2021/04/27 05:17:33;;;;;;;15.63;7.60;;;;;;;;;;3574329;39;20436;-76
2021/04/27 05:20:00;;;;;;;12.87;7.50;;;;;;;;;;3575152;39;20380;-77
2021/04/27 05:22:27;;;;;;;13.37;8.53;;;;;;;;;;3576598;39;20408;-78
2021/04/27 05:24:53;;;;;;;11.63;7.60;;;;;;;;;;3566535;40;20496;-78
2021/04/27 05:27:19;;;;;;;10.27;8.50;;;;;;;;;;3577850;39;20364;-77
2021/04/27 05:29:46;;;;;;;10.63;8.37;;;;;;;;;;3576214;40;20406;-78
2021/04/27 05:32:12;;;;;;;14.30;8.10;;;;;;;;;;3577612;40;21080;-78
2021/04/27 05:34:38;;;;;;;10.97;7.80;;;;;;;;;;3576459;40;20416;-78
2021/04/27 05:37:05;;;;;;;12.60;8.90;;;;;;;;;;3565306;40;20437;-77
2021/04/27 05:39:31;;;;;;;8.57;7.77;;;;;;;;;;3567706;39;20383;-78
2021/04/27 05:41:58;;;;;;;16.70;7.30;;;;;;;;;;3574747;39;20406;-78
2021/04/27 05:44:24;;;;;;;9.10;7.33;;;;;;;;;;3577731;40;20451;-78
2021/04/27 05:46:50;;;;;;;11.63;8.07;;;;;;;;;;3570389;40;20460;-78
2021/04/27 05:49:17;;;;;;;17.07;7.67;;;;;;;;;;3579194;39;20397;-78
2021/04/27 05:51:43;;;;;;;11.60;7.13;;;;;;;;;;3567631;39;20417;-79
2021/04/27 05:54:10;;;;;;;12.63;8.00;;;;;;;;;;3567282;40;20531;-77
2021/04/27 05:56:36;;;;;;;8.40;7.33;;;;;;;;;;3558302;40;20401;-77
2021/04/27 05:59:03;;;;;;;7.33;6.57;;;;;;;;;;3566814;39;20393;-78
2021/04/27 06:01:29;;;;;;;13.10;7.30;;;;;;;;;;3568171;40;20412;-77
2021/04/27 06:03:56;;;;;;;15.13;7.07;;;;;;;;;;3568535;39;20413;-78
2021/04/27 06:06:22;;;;;;;8.60;7.13;;;;;;;;;;3568639;40;20793;-77
2021/04/27 06:08:49;;;;;;;8.07;5.83;;;;;;;;;;3548474;40;20482;-77
2021/04/27 06:11:15;;;;;;;8.87;6.03;;;;;;;;;;3565495;40;20429;-77
2021/04/27 06:13:41;;;;;;;10.90;6.53;;;;;;;;;;3555787;40;23040;-77
2021/04/27 06:16:08;;;;;;;10.70;6.10;;;;;;;;;;3558173;40;20401;-77
2021/04/27 06:18:34;;;;;;;7.03;6.00;;;;;;;;;;3556863;40;20410;-77
2021/04/27 06:21:01;;;;;;;4.97;4.53;;;;;;;;;;3567735;40;20402;-77
2021/04/27 06:23:27;;;;;;;11.80;4.87;;;;;;;;;;3565774;40;20406;-77
2021/04/27 06:25:54;;;;;;;6.27;4.47;;;;;;;;;;3557693;40;20406;-78
2021/04/27 06:28:20;;;;;;;9.00;5.17;;;;;;;;;;3567859;40;20393;-78
2021/04/27 06:30:47;;;;;;;6.30;5.33;;;;;;;;;;3568896;40;20415;-78
2021/04/27 06:33:13;;;;;;;10.83;4.50;;;;;;;;;;3558478;40;20846;-78
2021/04/27 06:35:40;;;;;;;8.67;5.30;;;;;;;;;;3568294;40;20425;-78
2021/04/27 06:38:06;;;;;;;7.60;4.53;;;;;;;;;;3568498;40;20409;-77
2021/04/27 06:40:33;;;;;;;5.13;4.20;;;;;;;;;;3558435;40;20429;-78
2021/04/27 06:42:59;;;;;;;6.77;5.80;;;;;;;;;;3558735;40;20531;-78
2021/04/27 06:45:26;;;;;;;5.83;5.23;;;;;;;;;;3574635;39;20373;-78
2021/04/27 06:47:53;;;;;;;6.03;4.17;;;;;;;;;;3567488;40;20525;-77
2021/04/27 06:50:19;;;;;;;5.40;3.93;;;;;;;;;;3566179;40;20418;-77
2021/04/27 06:52:45;;;;;;;8.27;4.90;;;;;;;;;;3565367;40;20428;-79
2021/04/27 06:55:12;;;;;;;10.53;4.30;;;;;;;;;;3566751;40;20526;-78
2021/04/27 06:57:38;;;;;;;5.83;4.50;;;;;;;;;;3567222;40;20411;-77
2021/04/27 07:00:05;;;;;;;8.70;5.33;;;;;;;;;;3565532;40;20527;-77
2021/04/27 07:02:31;;;;;;;10.00;5.37;;;;;;;;;;3547988;40;20897;-77
2021/04/27 07:04:57;;;;;;;6.30;4.40;;;;;;;;;;3556995;40;20425;-77
2021/04/27 07:07:24;;;;;;;7.00;5.40;;;;;;;;;;3557690;40;20732;-76
2021/04/27 07:09:50;;;;;;;6.63;5.30;;;;;;;;;;3555464;40;20457;-78
2021/04/27 07:12:16;;;;;;;6.20;5.13;;;;;;;;;;3556048;40;20506;-77
2021/04/27 07:14:42;;;;;;;7.87;5.87;;;;;;;;;;3566435;40;20406;-77
2021/04/27 07:17:09;;;;;;;6.20;4.30;;;;;;;;;;3567318;40;20388;-77
2021/04/27 07:19:35;;;;;;;6.27;5.47;;;;;;;;;;3565338;40;20402;-77
2021/04/27 07:22:01;;;;;;;7.27;5.00;;;;;;;;;;3558643;40;20430;-77
2021/04/27 07:24:28;;;;;;;5.70;5.20;;;;;;;;;;3565316;40;20373;-77
2021/04/27 07:26:54;;;;;;;7.40;6.33;;;;;;;;;;3566729;40;20418;-76
2021/04/27 07:29:20;;;;;;;12.40;6.13;;;;;;;;;;3565913;40;20421;-77
2021/04/27 07:31:46;;;;;;;8.77;6.03;;;;;;;;;;3556713;40;22708;-77
2021/04/27 07:34:12;;;;;;;6.63;5.93;;;;;;;;;;3565412;40;20401;-78
2021/04/27 07:36:39;;;;;;;5.20;4.70;;;;;;;;;;3564996;40;20427;-77
2021/04/27 07:39:06;;;;;;;6.23;5.47;;;;;;;;;;3555925;40;20837;-77
2021/04/27 07:41:33;;;;;;;6.30;5.90;;;;;;;;;;3548543;40;20518;-78
2021/04/27 07:44:00;;;;;;;7.60;5.40;;;;;;;;;;3549309;40;20422;-78
2021/04/27 07:46:26;;;;;;;6.43;5.00;;;;;;;;;;3565610;40;20447;-78
2021/04/27 07:48:52;;;;;;;6.10;5.50;;;;;;;;;;3566677;40;20409;-78
2021/04/27 07:51:18;;;;;;;6.60;6.00;;;;;;;;;;3566260;40;20407;-78
2021/04/27 07:53:45;;;;;;;6.87;6.33;;;;;;;;;;3566099;40;20411;-78
2021/04/27 07:56:11;;;;;;;7.97;6.73;;;;;;;;;;3566799;40;20543;-77
2021/04/27 07:58:37;;;;;;;9.13;6.77;;;;;;;;;;3565454;40;20392;-78
2021/04/27 08:01:04;;;;;;;6.70;6.20;;;;;;;;;;3562926;40;20457;-77
2021/04/27 08:03:30;;;;;;;6.50;5.70;;;;;;;;;;3556052;40;20585;-77
2021/04/27 08:05:56;;;;;;;8.07;6.43;;;;;;;;;;3561695;40;20489;-77
2021/04/27 08:08:23;;;;;;;6.53;5.97;;;;;;;;;;3563618;40;20845;-78
2021/04/27 08:10:50;;;;;;;6.87;6.20;;;;;;;;;;3564132;40;20408;-78
2021/04/27 08:13:16;;;;;;;5.40;4.90;;;;;;;;;;3553919;40;20497;-77
2021/04/27 08:15:43;;;;;;;9.20;5.17;;;;;;;;;;3554358;40;20498;-77
2021/04/27 08:18:09;;;;;;;6.27;5.10;;;;;;;;;;3553578;40;21568;-77
2021/04/27 08:20:37;;;;;;;5.80;5.40;;;;;;;;;;3554203;40;20965;-77
2021/04/27 08:23:03;;;;;;;6.87;6.17;;;;;;;;;;3552183;40;20365;-77
2021/04/27 08:25:31;;;;;;;7.10;6.20;;;;;;;;;;3546525;40;20421;-77
2021/04/27 08:27:57;;;;;;;6.60;6.00;;;;;;;;;;3565268;40;20437;-77
2021/04/27 08:30:24;;;;;;;6.87;5.50;;;;;;;;;;3556960;40;20771;-77
2021/04/27 08:32:52;;;;;;;5.23;4.77;;;;;;;;;;3566521;40;20412;-77
2021/04/27 08:35:18;;;;;;;5.10;4.70;;;;;;;;;;3556527;40;20702;-77
2021/04/27 08:37:44;;;;;;;6.03;5.43;;;;;;;;;;3564073;40;20411;-77
2021/04/27 08:40:12;;;;;;;7.10;5.37;;;;;;;;;;3557646;40;20952;-77
2021/04/27 08:42:38;;;;;;;9.60;5.27;;;;;;;;;;3566694;40;20437;-78
2021/04/27 08:45:06;;;;;;;6.27;5.87;;;;;;;;;;3547123;40;20536;-76
2021/04/27 08:47:33;;;;;;;6.13;5.53;;;;;;;;;;3567280;40;20424;-77
2021/04/27 08:49:59;;;;;;;6.10;5.70;;;;;;;;;;3563147;40;20552;-77
2021/04/27 08:52:25;;;;;;;7.53;5.73;;;;;;;;;;3562663;40;20484;-77
2021/04/27 08:54:51;;;;;;;5.53;5.00;;;;;;;;;;3562609;40;20520;-78
2021/04/27 08:57:17;;;;;;;8.40;5.50;;;;;;;;;;3553233;40;20517;-77
2021/04/27 08:59:43;;;;;;;6.50;5.87;;;;;;;;;;3553092;40;20405;-78
2021/04/27 09:02:11;;;;;;;8.90;6.77;;;;;;;;;;3553606;40;20441;-78
2021/04/27 09:04:41;;;;;;;6.10;5.60;;;;;;;;;;3564487;40;20461;-78
2021/04/27 09:07:08;;;;;;;6.70;5.30;;;;;;;;;;3563988;40;20426;-78
2021/04/27 09:09:35;;;;;;;5.60;5.30;;;;;;;;;;3562491;40;20452;-78
2021/04/27 09:12:01;;;;;;;6.30;5.77;;;;;;;;;;3561140;40;20394;-77
2021/04/27 09:14:27;;;;;;;5.93;5.43;;;;;;;;;;3551166;40;20413;-78
2021/04/27 09:17:00;;;;;;;5.30;5.00;;;;;;;;;;3556868;40;20422;-78
2021/04/27 09:19:30;;;;;;;5.63;5.17;;;;;;;;;;3563633;40;20408;-78
2021/04/27 09:22:04;;;;;;;5.80;5.40;;;;;;;;;;3555168;40;20744;-78
2021/04/27 09:24:33;;;;;;;5.47;5.17;;;;;;;;;;3561637;40;20423;-78
2021/04/27 09:26:59;;;;;;;6.83;6.23;;;;;;;;;;3562934;40;20413;-77
2021/04/27 09:29:33;;;;;;;5.93;5.53;;;;;;;;;;3562521;40;20421;-77
2021/04/27 09:32:00;;;;;;;5.93;5.43;;;;;;;;;;3553296;40;20425;-78
2021/04/27 09:34:27;;;;;;;5.57;5.17;;;;;;;;;;3563269;40;20538;-77
2021/04/27 09:36:54;;;;;;;6.27;5.77;;;;;;;;;;3561586;40;20505;-78
2021/04/27 09:39:41;;;;;;;5.63;5.07;;;;;;;;;;3564711;40;20919;-78
2021/04/27 09:42:09;;;;;;;6.00;5.60;;;;;;;;;;3557041;40;20514;-77
2021/04/27 09:44:49;;;;;;;6.70;6.00;;;;;;;;;;3563350;40;20413;-78
2021/04/27 09:47:16;;;;;;;6.07;5.47;;;;;;;;;;3566495;40;20429;-78
2021/04/27 09:49:51;;;;;;;6.60;5.87;;;;;;;;;;3557742;40;21294;-78
2021/04/27 09:52:17;;;;;;;9.10;5.83;;;;;;;;;;3556248;40;20483;-77
2021/04/27 09:54:56;;;;;;;5.50;5.10;;;;;;;;;;3565477;40;20489;-77
2021/04/27 09:57:26;;;;;;;8.47;5.10;;;;;;;;;;3557288;40;20740;-77
2021/04/27 09:59:53;;;;;;;5.80;5.40;;;;;;;;;;3558397;40;20407;-77
2021/04/27 10:02:20;;;;;;;6.07;5.57;;;;;;;;;;3558601;40;20409;-77
2021/04/27 10:04:47;;;;;;;6.13;5.63;;;;;;;;;;3557733;40;20433;-77
2021/04/27 10:07:16;;;;;;;5.83;4.57;;;;;;;;;;3549523;40;20514;-77
2021/04/27 10:09:42;;;;;;;5.83;5.40;;;;;;;;;;3548375;40;20763;-77
2021/04/27 10:12:08;;;;;;;5.87;5.40;;;;;;;;;;3558766;40;20798;-77
2021/04/27 10:14:34;;;;;;;5.70;5.30;;;;;;;;;;3557331;40;20838;-79
2021/04/27 10:17:02;;;;;;;5.67;5.30;;;;;;;;;;3552512;40;20413;-78
2021/04/27 10:19:28;;;;;;;5.20;4.90;;;;;;;;;;3568522;40;20439;-77
2021/04/27 10:21:54;;;;;;;6.20;5.70;;;;;;;;;;3566216;40;20412;-77
2021/04/27 10:24:24;;;;;;;5.43;5.10;;;;;;;;;;3558061;40;20403;-77
2021/04/27 10:26:51;;;;;;;6.13;5.53;;;;;;;;;;3564431;40;20429;-77
2021/04/27 10:29:18;;;;;;;6.10;5.50;;;;;;;;;;3547846;40;20429;-76
2021/04/27 10:31:45;;;;;;;5.50;5.10;;;;;;;;;;3555925;40;20398;-77
2021/04/27 10:34:12;;;;;;;5.70;5.20;;;;;;;;;;3556526;40;20503;-77
2021/04/27 10:36:50;;;;;;;6.20;5.53;;;;;;;;;;3556806;40;20455;-77
2021/04/27 10:39:18;;;;;;;5.77;5.27;;;;;;;;;;3549409;40;20425;-77
2021/04/27 10:41:56;;;;;;;5.23;4.83;;;;;;;;;;3557995;40;22844;-78
2021/04/27 10:44:23;;;;;;;5.53;5.13;;;;;;;;;;3566105;40;20415;-77
2021/04/27 10:46:51;;;;;;;9.00;5.60;;;;;;;;;;3553327;40;20417;-77
2021/04/27 10:49:23;;;;;;;6.50;5.90;;;;;;;;;;3566907;40;20638;-78
2021/04/27 10:51:52;;;;;;;5.47;4.97;;;;;;;;;;3556241;40;20553;-77
2021/04/27 10:54:21;;;;;;;6.23;5.80;;;;;;;;;;3550238;40;20410;-77
2021/04/27 10:56:47;;;;;;;5.70;5.20;;;;;;;;;;3566485;40;20410;-77
2021/04/27 10:59:14;;;;;;;6.07;5.43;;;;;;;;;;3558376;40;20504;-77
2021/04/27 11:01:41;;;;;;;8.10;5.97;;;;;;;;;;3556346;40;20428;-78
2021/04/27 11:04:27;;;;;;;7.03;5.80;;;;;;;;;;3566702;40;20598;-77
2021/04/27 11:07:10;;;;;;;6.30;5.80;;;;;;;;;;3556345;40;20433;-77
2021/04/27 11:09:36;;;;;;;5.97;5.13;;;;;;;;;;3565864;40;20405;-77
2021/04/27 11:12:21;;;;;;;6.30;4.97;;;;;;;;;;3567010;40;20492;-78
2021/04/27 11:14:59;;;;;;;7.93;5.63;;;;;;;;;;3566615;40;20411;-78
2021/04/27 11:17:29;;;;;;;6.13;5.20;;;;;;;;;;3565534;40;20401;-78
2021/04/27 11:19:55;;;;;;;7.30;5.40;;;;;;;;;;3564815;40;20420;-77
2021/04/27 11:22:23;;;;;;;8.13;5.67;;;;;;;;;;3564280;40;20533;-77
2021/04/27 11:24:51;;;;;;;6.10;5.50;;;;;;;;;;3561112;40;20433;-77
2021/04/27 11:27:20;;;;;;;5.90;5.40;;;;;;;;;;3561927;40;20545;-78
2021/04/27 11:29:55;;;;;;;12.10;5.80;;;;;;;;;;3564876;40;20921;-77
2021/04/27 11:32:21;;;;;;;6.30;5.77;;;;;;;;;;3561571;40;20400;-77
2021/04/27 11:35:03;;;;;;;6.70;6.00;;;;;;;;;;3550140;40;20402;-77
2021/04/27 11:37:32;;;;;;;6.50;6.00;;;;;;;;;;3561631;40;20408;-77
2021/04/27 11:39:59;;;;;;;6.10;5.70;;;;;;;;;;3559328;40;20424;-77
2021/04/27 11:42:34;;;;;;;9.50;6.70;;;;;;;;;;3563156;40;20403;-77
2021/04/27 11:45:03;;;;;;;7.27;6.57;;;;;;;;;;3563726;40;20416;-77
2021/04/27 11:47:33;;;;;;;7.53;6.33;;;;;;;;;;3560585;40;20417;-78
2021/04/27 11:50:01;;;;;;;5.80;5.40;;;;;;;;;;3549935;40;20421;-78
2021/04/27 11:52:41;;;;;;;7.20;6.60;;;;;;;;;;3550676;40;20818;-76
2021/04/27 11:55:26;;;;;;;6.67;6.07;;;;;;;;;;3561608;40;20916;-76
2021/04/27 11:57:57;;;;;;;6.33;5.90;;;;;;;;;;3551374;40;20534;-77
2021/04/27 12:00:29;;;;;;;6.93;6.33;;;;;;;;;;3556580;40;20438;-76
2021/04/27 12:02:56;;;;;;;6.60;6.20;;;;;;;;;;3554734;40;20415;-76
2021/04/27 12:05:22;;;;;;;5.30;5.00;;;;;;;;;;3563405;39;20440;-77
2021/04/27 12:07:49;;;;;;;5.93;5.53;;;;;;;;;;3551600;40;20422;-77
2021/04/27 12:10:15;;;;;;;6.00;5.50;;;;;;;;;;3543857;40;20505;-77
2021/04/27 12:12:49;;;;;;;7.90;6.90;;;;;;;;;;3558950;40;20413;-77
2021/04/27 12:15:15;;;;;;;5.70;5.20;;;;;;;;;;3552360;40;20433;-77
2021/04/27 12:17:41;;;;;;;6.83;5.80;;;;;;;;;;3559056;40;20413;-76
2021/04/27 12:20:18;;;;;;;8.90;6.60;;;;;;;;;;3551168;40;21586;-77
2021/04/27 12:22:46;;;;;;;7.00;6.50;;;;;;;;;;3564955;40;20405;-79
2021/04/27 12:25:20;;;;;;;6.60;6.10;;;;;;;;;;3556625;40;20501;-77
2021/04/27 12:27:46;;;;;;;7.37;6.87;;;;;;;;;;3556592;40;20512;-77
2021/04/27 12:30:17;;;;;;;6.57;5.90;;;;;;;;;;3555272;40;20430;-76
2021/04/27 12:32:49;;;;;;;7.07;6.47;;;;;;;;;;3562186;40;20417;-76
2021/04/27 12:35:18;;;;;;;7.20;6.67;;;;;;;;;;3565686;40;20426;-77
2021/04/27 12:37:54;;;;;;;7.27;6.77;;;;;;;;;;3559387;40;20457;-77
2021/04/27 12:40:21;;;;;;;6.57;6.07;;;;;;;;;;3558912;40;20402;-77
2021/04/27 12:43:03;;;;;;;7.30;6.70;;;;;;;;;;3550255;40;20838;-77
2021/04/27 12:45:41;;;;;;;6.03;5.63;;;;;;;;;;3558342;40;20733;-77
2021/04/27 12:48:07;;;;;;;6.20;5.70;;;;;;;;;;3568404;40;20413;-77
2021/04/27 12:50:43;;;;;;;6.20;5.80;;;;;;;;;;3556862;40;20478;-77
2021/04/27 12:53:10;;;;;;;6.90;6.40;;;;;;;;;;3560068;40;20406;-78
2021/04/27 12:55:37;;;;;;;8.43;6.10;;;;;;;;;;3543269;40;20417;-77
2021/04/27 12:58:10;;;;;;;6.27;5.83;;;;;;;;;;3551828;40;20429;-77
2021/04/27 13:00:47;;;;;;;7.80;6.60;;;;;;;;;;3561061;40;20473;-77
2021/04/27 13:03:14;;;;;;;6.27;5.67;;;;;;;;;;3564482;40;20741;-77
2021/04/27 13:05:40;;;;;;;5.77;5.37;;;;;;;;;;3556365;40;20423;-77
2021/04/27 13:08:07;;;;;;;6.47;6.00;;;;;;;;;;3542258;40;20426;-77
2021/04/27 13:10:38;;;;;;;6.50;6.00;;;;;;;;;;3552628;40;20426;-77
2021/04/27 13:13:12;;;;;;;6.33;5.90;;;;;;;;;;3542966;40;20395;-77
2021/04/27 13:15:38;;;;;;;7.00;6.30;;;;;;;;;;3542686;40;20870;-77
2021/04/27 13:18:05;;;;;;;6.60;5.67;;;;;;;;;;3542363;40;20423;-77
2021/04/27 13:20:38;;;;;;;7.57;6.97;;;;;;;;;;3533700;40;20462;-77
2021/04/27 13:23:07;;;;;;;6.70;6.10;;;;;;;;;;3534930;40;20493;-77
2021/04/27 13:25:38;;;;;;;5.60;5.27;;;;;;;;;;3551739;40;20422;-77
2021/04/27 13:28:05;;;;;;;6.30;5.90;;;;;;;;;;3551325;40;20898;-76
2021/04/27 13:30:36;;;;;;;6.23;5.77;;;;;;;;;;3541353;40;21870;-77
2021/04/27 13:33:09;;;;;;;5.93;5.40;;;;;;;;;;3541978;40;20831;-77
2021/04/27 13:36:01;;;;;;;8.03;7.23;;;;;;;;;;3541951;40;20418;-77
2021/04/27 13:38:30;;;;;;;8.03;6.10;;;;;;;;;;3552399;40;20710;-77
2021/04/27 13:40:57;;;;;;;9.20;5.73;;;;;;;;;;3535582;40;20520;-77
2021/04/27 13:43:23;;;;;;;5.63;5.23;;;;;;;;;;3541853;40;20401;-77
2021/04/27 13:45:50;;;;;;;7.07;5.40;;;;;;;;;;3542277;40;20441;-77
2021/04/27 13:48:19;;;;;;;5.73;5.07;;;;;;;;;;3541977;40;20433;-77
2021/04/27 13:50:46;;;;;;;6.23;5.60;;;;;;;;;;3541736;40;20419;-77
2021/04/27 13:53:13;;;;;;;5.63;5.20;;;;;;;;;;3532870;40;20488;-77
2021/04/27 13:55:41;;;;;;;4.37;4.07;;;;;;;;;;3534767;40;20431;-77
2021/04/27 13:58:07;;;;;;;6.43;4.50;;;;;;;;;;3541740;40;20790;-77
2021/04/27 14:00:33;;;;;;;6.50;5.40;;;;;;;;;;3543447;40;20432;-77
2021/04/27 14:03:00;;;;;;;5.40;4.40;;;;;;;;;;3532933;40;20423;-77
2021/04/27 14:05:27;;;;;;;4.87;4.57;;;;;;;;;;3558332;40;20441;-77
2021/04/27 14:07:54;;;;;;;6.97;4.87;;;;;;;;;;3567282;40;20409;-77
2021/04/27 14:10:21;;;;;;;7.67;5.90;;;;;;;;;;3563251;40;20452;-77
2021/04/27 14:12:48;;;;;;;5.67;5.27;;;;;;;;;;3561465;40;20405;-77
2021/04/27 14:15:17;;;;;;;5.17;4.77;;;;;;;;;;3555470;40;20408;-77
2021/04/27 14:17:44;;;;;;;6.57;4.40;;;;;;;;;;3568813;40;20414;-77
2021/04/27 14:20:11;;;;;;;5.50;4.97;;;;;;;;;;3559865;40;20428;-77
2021/04/27 14:22:37;;;;;;;5.60;5.10;;;;;;;;;;3566598;40;20398;-78
2021/04/27 14:25:05;;;;;;;5.63;5.10;;;;;;;;;;3566901;40;20908;-77
2021/04/27 14:27:32;;;;;;;5.60;5.20;;;;;;;;;;3557206;40;20473;-77
2021/04/27 14:29:58;;;;;;;4.77;4.40;;;;;;;;;;3548521;40;20415;-77
2021/04/27 14:32:26;;;;;;;6.93;5.97;;;;;;;;;;3549233;40;20398;-77
2021/04/27 14:34:52;;;;;;;111.23;15.10;;;;;;;;;;3559486;40;20399;-78
2021/04/27 14:37:18;;;;;;;13.00;4.93;;;;;;;;;;3556879;40;20705;-77
2021/04/27 14:39:44;;;;;;;5.50;5.00;;;;;;;;;;3565121;40;20422;-78
2021/04/27 14:42:10;;;;;;;9.10;5.30;;;;;;;;;;3558230;40;20410;-76